Time;durP1;ratioP1;P1;durP2;ratioP2;P2;SDS_P1;SDS_P2;PMS_P1;PMS_P2;Temp;Humidity;BMP_temperature;BMP_pressure;BME280_temperature;BME280_humidity;BME280_pressure;Samples;Min_cycle;Max_cycle;Signal;HPM_P1;HPM_P2
2022/03/09 00:02:24;;;;;;;10.35;7.70;;;23.10;34.70;;;;;;4917490;29;20312;-64
2022/03/09 00:04:52;;;;;;;9.93;7.65;;;23.20;34.80;;;;;;4923395;29;20047;-64
2022/03/09 00:07:19;;;;;;;12.50;7.90;;;23.10;34.70;;;;;;4920708;29;20036;-63
2022/03/09 00:09:46;;;;;;;10.10;8.15;;;23.10;34.70;;;;;;4924032;29;20053;-63
2022/03/09 00:12:13;;;;;;;10.93;7.90;;;23.10;34.60;;;;;;4913415;29;20144;-63
2022/03/09 00:14:40;;;;;;;10.68;7.57;;;23.10;34.60;;;;;;4922045;29;20044;-63
2022/03/09 00:17:08;;;;;;;10.43;7.97;;;23.10;34.50;;;;;;4915079;29;20425;-63
2022/03/09 00:19:35;;;;;;;10.05;7.88;;;23.10;34.40;;;;;;4921732;29;20051;-63
2022/03/09 00:22:04;;;;;;;10.02;7.82;;;23.10;34.30;;;;;;4932744;28;20058;-64
2022/03/09 00:24:32;;;;;;;10.25;7.68;;;23.10;34.30;;;;;;4918382;29;20043;-63
2022/03/09 00:26:59;;;;;;;13.68;8.40;;;23.10;34.30;;;;;;4915796;29;20230;-63
2022/03/09 00:29:27;;;;;;;15.50;8.95;;;23.00;34.20;;;;;;4919601;29;20068;-64
2022/03/09 00:31:54;;;;;;;11.45;7.95;;;23.00;34.10;;;;;;4917913;29;20051;-62
2022/03/09 00:34:21;;;;;;;10.40;8.30;;;23.00;34.20;;;;;;4933574;28;20048;-62
2022/03/09 00:36:48;;;;;;;13.02;7.80;;;23.00;34.20;;;;;;4928610;29;20045;-62
2022/03/09 00:39:16;;;;;;;8.88;7.15;;;23.00;34.20;;;;;;4927582;29;20073;-63
2022/03/09 00:41:44;;;;;;;8.95;7.53;;;23.00;34.30;;;;;;4916587;29;20128;-64
2022/03/09 00:44:11;;;;;;;11.50;8.18;;;23.00;34.30;;;;;;4921290;29;20052;-63
2022/03/09 00:46:38;;;;;;;8.95;7.35;;;23.00;34.20;;;;;;4926838;29;20060;-63
2022/03/09 00:49:05;;;;;;;12.27;8.07;;;23.00;34.20;;;;;;4921883;29;20052;-63
2022/03/09 00:51:32;;;;;;;9.57;7.32;;;23.00;34.00;;;;;;4923096;29;20046;-62
2022/03/09 00:53:59;;;;;;;9.13;7.45;;;23.00;34.00;;;;;;4912594;29;20543;-63
2022/03/09 00:56:29;;;;;;;8.85;7.10;;;22.90;33.90;;;;;;4927521;28;20043;-63
2022/03/09 00:58:56;;;;;;;9.98;7.93;;;22.90;33.80;;;;;;4922931;29;20044;-62
2022/03/09 01:01:23;;;;;;;10.00;7.28;;;22.90;33.80;;;;;;4924219;29;20052;-62
2022/03/09 01:03:50;;;;;;;10.68;7.30;;;22.90;33.70;;;;;;4921495;29;20501;-62
2022/03/09 01:06:17;;;;;;;11.30;7.13;;;22.90;33.70;;;;;;4925890;29;20122;-63
2022/03/09 01:08:44;;;;;;;10.70;7.75;;;22.90;33.70;;;;;;4914930;28;20048;-61
2022/03/09 01:11:12;;;;;;;12.05;8.07;;;22.90;33.70;;;;;;4927762;29;20120;-63
2022/03/09 01:13:41;;;;;;;12.18;7.53;;;22.90;33.70;;;;;;4922897;29;20051;-63
2022/03/09 01:16:08;;;;;;;9.07;6.72;;;22.90;33.70;;;;;;4923941;29;20052;-62
2022/03/09 01:18:35;;;;;;;12.32;7.03;;;22.90;33.70;;;;;;4928218;29;20583;-62
2022/03/09 01:21:02;;;;;;;8.05;7.25;;;22.90;33.70;;;;;;4922022;29;20047;-61
2022/03/09 01:23:29;;;;;;;9.60;7.53;;;22.80;33.70;;;;;;4912326;29;20543;-62
2022/03/09 01:25:56;;;;;;;8.45;7.65;;;22.80;33.70;;;;;;4923917;29;20040;-62
2022/03/09 01:28:23;;;;;;;10.98;8.07;;;22.80;33.70;;;;;;4935214;29;20054;-62
2022/03/09 01:30:51;;;;;;;10.40;7.28;;;22.80;33.70;;;;;;4939418;29;20059;-63
2022/03/09 01:33:18;;;;;;;11.00;7.05;;;22.80;33.70;;;;;;4941869;29;20048;-62
2022/03/09 01:35:46;;;;;;;9.38;5.93;;;22.80;33.70;;;;;;4914520;28;20044;-62
2022/03/09 01:38:13;;;;;;;8.75;6.82;;;22.80;33.60;;;;;;4928219;29;20051;-62
2022/03/09 01:40:40;;;;;;;9.63;6.13;;;22.80;33.70;;;;;;4921937;29;20052;-62
2022/03/09 01:43:07;;;;;;;8.20;6.03;;;22.80;33.80;;;;;;4925209;29;20040;-62
2022/03/09 01:45:36;;;;;;;8.30;5.82;;;22.80;34.00;;;;;;4920454;29;20421;-63
2022/03/09 01:48:05;;;;;;;7.30;6.30;;;22.80;34.10;;;;;;4915216;29;20048;-62
2022/03/09 01:50:32;;;;;;;6.50;5.78;;;22.80;34.30;;;;;;4916987;28;20040;-63
2022/03/09 01:52:59;;;;;;;8.75;5.45;;;22.70;34.30;;;;;;4923591;29;20050;-64
2022/03/09 01:55:27;;;;;;;7.90;7.10;;;22.80;34.60;;;;;;4921593;29;20497;-62
2022/03/09 01:57:54;;;;;;;8.32;7.30;;;22.70;34.50;;;;;;4919704;29;20127;-63
2022/03/09 02:00:22;;;;;;;8.30;6.38;;;22.70;34.70;;;;;;4923312;29;20051;-63
2022/03/09 02:02:49;;;;;;;7.72;5.45;;;22.70;34.80;;;;;;4921902;29;20506;-63
2022/03/09 02:05:18;;;;;;;8.32;5.82;;;22.70;35.00;;;;;;4912990;29;20070;-64
2022/03/09 02:10:29;;;;;;;8.07;5.72;;;22.70;35.10;;;;;;4924539;29;20043;-64
2022/03/09 02:12:58;;;;;;;5.15;4.68;;;22.70;35.10;;;;;;4917329;29;20044;-63
2022/03/09 02:15:25;;;;;;;7.38;4.97;;;22.70;35.10;;;;;;4920691;29;20095;-63
2022/03/09 02:17:52;;;;;;;9.13;5.55;;;22.70;35.10;;;;;;4912795;29;20051;-64
2022/03/09 02:20:20;;;;;;;4.88;4.25;;;22.70;35.20;;;;;;4923572;28;20449;-64
2022/03/09 02:22:48;;;;;;;5.88;4.40;;;22.70;35.30;;;;;;4921540;29;20071;-63
2022/03/09 02:25:17;;;;;;;4.47;4.07;;;22.70;35.40;;;;;;4921937;29;20497;-64
2022/03/09 02:27:45;;;;;;;5.82;3.85;;;22.70;35.50;;;;;;4919781;29;20044;-63
2022/03/09 02:30:14;;;;;;;5.38;4.18;;;22.70;35.60;;;;;;4918528;29;20066;-62
2022/03/09 02:32:42;;;;;;;5.40;4.28;;;22.70;35.60;;;;;;4913033;29;20029;-63
2022/03/09 02:35:10;;;;;;;4.22;3.70;;;22.70;35.90;;;;;;4953109;28;20049;-62
2022/03/09 02:37:37;;;;;;;7.05;4.32;;;22.70;36.10;;;;;;4921506;29;20044;-63
2022/03/09 02:40:10;;;;;;;5.40;4.03;;;22.70;36.10;;;;;;4920951;29;20052;-62
2022/03/09 02:42:37;;;;;;;4.88;3.85;;;22.70;36.10;;;;;;4959028;28;20154;-62
2022/03/09 02:45:06;;;;;;;6.50;4.57;;;22.60;36.10;;;;;;4919813;28;21392;-63
2022/03/09 02:47:34;;;;;;;8.55;2.97;;;22.60;36.10;;;;;;4910674;29;20044;-62
2022/03/09 02:50:01;;;;;;;3.45;3.25;;;22.60;36.20;;;;;;4917307;29;20123;-63
2022/03/09 02:52:28;;;;;;;3.40;3.10;;;22.60;36.20;;;;;;4931189;29;20147;-62
2022/03/09 02:54:56;;;;;;;2.53;2.33;;;22.60;36.20;;;;;;4919501;29;20131;-63
2022/03/09 02:57:25;;;;;;;2.65;2.45;;;22.60;36.20;;;;;;4918907;29;20143;-63
2022/03/09 02:59:52;;;;;;;2.50;2.30;;;22.60;36.20;;;;;;4917023;28;20036;-63
2022/03/09 03:02:19;;;;;;;3.03;2.78;;;22.60;36.30;;;;;;4926120;29;20052;-63
2022/03/09 03:04:46;;;;;;;4.22;2.50;;;22.50;36.40;;;;;;4920256;29;20044;-63
2022/03/09 03:07:13;;;;;;;4.75;3.65;;;22.50;36.40;;;;;;4920336;29;20051;-65
2022/03/09 03:09:40;;;;;;;1.38;1.23;;;22.50;37.10;;;;;;4918569;29;20043;-65
2022/03/09 03:12:07;;;;;;;2.35;2.22;;;22.50;36.50;;;;;;4916045;29;20046;-64
2022/03/09 03:14:36;;;;;;;1.58;1.48;;;22.50;36.50;;;;;;4915963;28;20070;-63
2022/03/09 03:17:03;;;;;;;2.25;1.77;;;22.50;36.50;;;;;;4923914;28;20056;-63
2022/03/09 03:19:30;;;;;;;2.40;1.90;;;22.50;36.50;;;;;;4920029;29;20056;-63
2022/03/09 03:21:57;;;;;;;2.72;1.70;;;22.40;36.40;;;;;;4919957;29;20052;-64
2022/03/09 03:24:24;;;;;;;4.05;2.05;;;22.40;36.50;;;;;;4917544;29;20427;-63
2022/03/09 03:26:51;;;;;;;2.05;1.23;;;22.40;36.60;;;;;;4920962;28;20050;-63
2022/03/09 03:29:18;;;;;;;1.48;1.45;;;22.40;36.60;;;;;;4912289;29;20063;-63
2022/03/09 03:31:46;;;;;;;1.77;1.67;;;22.40;36.60;;;;;;4921548;29;20052;-63
2022/03/09 03:34:13;;;;;;;2.47;1.10;;;22.40;36.70;;;;;;4922697;29;20047;-62
2022/03/09 03:36:40;;;;;;;1.33;1.15;;;22.40;36.60;;;;;;4933536;28;20404;-63
2022/03/09 03:39:07;;;;;;;2.15;1.45;;;22.30;36.60;;;;;;4916804;29;20059;-63
2022/03/09 03:41:34;;;;;;;1.70;1.33;;;22.40;37.30;;;;;;4918858;29;20048;-63
2022/03/09 03:44:01;;;;;;;0.80;0.80;;;22.30;36.70;;;;;;4914640;29;20047;-63
2022/03/09 03:46:28;;;;;;;2.55;0.82;;;22.30;36.70;;;;;;4920457;29;20054;-63
2022/03/09 03:48:57;;;;;;;1.00;0.88;;;22.30;36.70;;;;;;4926207;29;20044;-63
2022/03/09 03:51:24;;;;;;;0.70;0.60;;;22.30;36.80;;;;;;4933146;28;20408;-62
2022/03/09 03:53:51;;;;;;;1.50;1.17;;;22.30;36.80;;;;;;4914822;29;20036;-63
2022/03/09 03:56:18;;;;;;;1.17;1.13;;;22.30;36.80;;;;;;4923140;29;20127;-64
2022/03/09 03:58:45;;;;;;;1.75;0.85;;;22.30;36.80;;;;;;4924900;29;20036;-64
2022/03/09 04:01:12;;;;;;;2.92;0.70;;;22.40;37.10;;;;;;4931303;29;20062;-66
2022/03/09 04:03:39;;;;;;;0.93;0.93;;;22.30;37.20;;;;;;4928922;29;20039;-62
2022/03/09 04:06:07;;;;;;;0.60;0.60;;;22.30;37.30;;;;;;4922114;29;20040;-62
2022/03/09 04:08:34;;;;;;;0.63;0.50;;;22.30;37.40;;;;;;4925309;29;20051;-63
2022/03/09 04:11:02;;;;;;;0.68;0.68;;;22.30;37.40;;;;;;4916265;29;20066;-63
2022/03/09 04:13:29;;;;;;;1.02;0.82;;;22.30;37.30;;;;;;4924839;29;20048;-62
2022/03/09 04:15:56;;;;;;;1.38;0.98;;;22.30;37.20;;;;;;4925791;29;20530;-60
2022/03/09 04:18:23;;;;;;;0.98;0.93;;;22.30;37.20;;;;;;4922144;29;20063;-63
2022/03/09 04:20:50;;;;;;;0.90;0.90;;;22.30;37.30;;;;;;4914618;29;20060;-62
2022/03/09 04:23:18;;;;;;;0.57;0.57;;;22.30;37.30;;;;;;4923657;29;20043;-63
2022/03/09 04:25:45;;;;;;;1.80;0.50;;;22.30;37.30;;;;;;4920454;29;20059;-63
2022/03/09 04:28:13;;;;;;;2.20;0.73;;;22.30;37.40;;;;;;4922107;29;20096;-63
2022/03/09 04:30:40;;;;;;;0.68;0.68;;;22.30;37.50;;;;;;4924021;29;20047;-63
2022/03/09 04:33:07;;;;;;;3.65;1.27;;;22.20;37.50;;;;;;4913919;29;20052;-63
2022/03/09 04:35:34;;;;;;;0.52;0.50;;;22.20;37.50;;;;;;4919242;29;20054;-64
2022/03/09 04:38:01;;;;;;;0.90;0.65;;;22.20;37.60;;;;;;4936720;29;20055;-64
2022/03/09 04:40:30;;;;;;;1.60;0.73;;;22.20;37.70;;;;;;4930288;29;20048;-64
2022/03/09 04:42:57;;;;;;;1.35;1.25;;;22.20;37.60;;;;;;4922135;29;20139;-64
2022/03/09 04:45:24;;;;;;;1.02;0.90;;;22.20;37.60;;;;;;4922410;29;20047;-63
2022/03/09 04:47:51;;;;;;;1.10;0.90;;;22.10;37.60;;;;;;4922549;29;20043;-64
2022/03/09 04:50:18;;;;;;;0.85;0.85;;;22.20;37.60;;;;;;4924324;29;20411;-64
2022/03/09 04:52:45;;;;;;;1.20;0.90;;;22.20;37.50;;;;;;4922936;29;20039;-63
2022/03/09 04:55:12;;;;;;;1.40;1.30;;;22.20;38.00;;;;;;4923493;29;20048;-63
2022/03/09 04:57:41;;;;;;;2.13;1.95;;;22.10;37.30;;;;;;4931523;29;20039;-64
2022/03/09 05:00:09;;;;;;;2.85;1.98;;;22.10;37.40;;;;;;4920311;29;20134;-63
2022/03/09 05:02:37;;;;;;;6.13;2.20;;;22.10;37.40;;;;;;4919423;29;20067;-65
2022/03/09 05:05:05;;;;;;;2.45;2.25;;;22.10;37.50;;;;;;4928624;29;20048;-63
2022/03/09 05:07:32;;;;;;;1.85;1.63;;;22.10;37.60;;;;;;4920206;29;20055;-63
2022/03/09 05:10:00;;;;;;;1.98;1.75;;;22.10;37.60;;;;;;4921191;29;20051;-64
2022/03/09 05:12:27;;;;;;;2.92;1.83;;;22.10;37.60;;;;;;4925920;29;20043;-62
2022/03/09 05:14:56;;;;;;;3.00;2.10;;;22.10;37.60;;;;;;4921075;29;20125;-62
2022/03/09 05:17:23;;;;;;;4.05;2.28;;;22.10;37.60;;;;;;4913378;29;20092;-62
2022/03/09 05:19:50;;;;;;;3.20;2.33;;;22.00;37.50;;;;;;4928371;29;20436;-62
2022/03/09 05:22:17;;;;;;;2.95;2.58;;;22.00;37.50;;;;;;4928902;28;20050;-62
2022/03/09 05:24:46;;;;;;;2.90;2.63;;;22.00;37.50;;;;;;4927712;29;20075;-63
2022/03/09 05:27:13;;;;;;;3.63;2.70;;;22.00;37.40;;;;;;4924494;29;20465;-62
2022/03/09 05:29:40;;;;;;;3.40;3.20;;;22.00;37.20;;;;;;4918718;29;20572;-63
2022/03/09 05:32:09;;;;;;;3.53;3.03;;;22.00;37.20;;;;;;4926346;29;20123;-62
2022/03/09 05:34:36;;;;;;;3.92;2.65;;;22.00;37.20;;;;;;4922033;29;20512;-63
2022/03/09 05:37:03;;;;;;;4.43;4.03;;;21.90;37.10;;;;;;4923178;29;20127;-62
2022/03/09 05:39:30;;;;;;;5.85;3.92;;;21.90;37.10;;;;;;4923541;29;20043;-62
2022/03/09 05:41:57;;;;;;;4.72;3.22;;;21.90;37.00;;;;;;4924775;29;20044;-63
2022/03/09 05:44:24;;;;;;;3.95;3.35;;;21.90;37.10;;;;;;4912374;28;20051;-62
2022/03/09 05:46:51;;;;;;;3.50;3.20;;;21.90;37.00;;;;;;4923981;29;20131;-62
2022/03/09 05:49:21;;;;;;;4.32;3.92;;;21.90;37.00;;;;;;4922467;29;20564;-61
2022/03/09 05:51:49;;;;;;;3.15;2.95;;;21.90;37.10;;;;;;4920679;29;20067;-63
2022/03/09 05:54:16;;;;;;;7.55;4.03;;;21.80;37.00;;;;;;4917813;29;20499;-64
2022/03/09 05:56:43;;;;;;;6.00;4.40;;;21.80;37.70;;;;;;4920052;29;20125;-63
2022/03/09 05:59:11;;;;;;;6.75;3.88;;;21.80;37.20;;;;;;4914542;29;20058;-62
2022/03/09 06:01:38;;;;;;;5.03;4.20;;;21.80;37.20;;;;;;4922317;29;20516;-63
2022/03/09 06:04:06;;;;;;;6.05;3.95;;;21.80;37.10;;;;;;4927485;28;20039;-62
2022/03/09 06:06:34;;;;;;;5.78;4.30;;;21.80;37.10;;;;;;4934437;28;20048;-64
2022/03/09 06:09:01;;;;;;;4.90;4.32;;;21.70;37.00;;;;;;4912718;29;20055;-63
2022/03/09 06:11:28;;;;;;;4.28;3.88;;;21.70;37.00;;;;;;4917094;29;20469;-63
2022/03/09 06:13:55;;;;;;;16.50;5.57;;;21.70;37.10;;;;;;4925105;29;20708;-64
2022/03/09 06:16:22;;;;;;;7.65;4.38;;;21.70;37.10;;;;;;4920437;29;20143;-65
2022/03/09 06:18:49;;;;;;;6.82;5.28;;;21.70;37.10;;;;;;4921713;29;20854;-65
2022/03/09 06:21:17;;;;;;;4.68;4.18;;;21.70;37.10;;;;;;4916212;29;20048;-65
2022/03/09 06:23:45;;;;;;;4.38;4.07;;;21.60;37.00;;;;;;4922694;28;20350;-66
2022/03/09 06:26:12;;;;;;;5.50;4.32;;;21.60;37.00;;;;;;4914499;28;20044;-65
2022/03/09 06:28:39;;;;;;;4.20;3.75;;;21.60;37.10;;;;;;4921492;29;20071;-66
2022/03/09 06:31:07;;;;;;;4.32;3.92;;;21.60;37.10;;;;;;4918593;29;20037;-65
2022/03/09 06:33:34;;;;;;;5.72;4.38;;;21.60;37.10;;;;;;4919303;29;20044;-66
2022/03/09 06:36:01;;;;;;;5.78;5.25;;;21.60;37.30;;;;;;4918691;29;20057;-65
2022/03/09 06:38:28;;;;;;;5.07;3.40;;;21.60;37.40;;;;;;4923264;28;20043;-66
2022/03/09 06:40:57;;;;;;;4.30;4.00;;;21.50;37.20;;;;;;4927712;29;20130;-64
2022/03/09 06:43:24;;;;;;;4.65;4.25;;;21.60;37.40;;;;;;4920767;29;20059;-63
2022/03/09 06:45:52;;;;;;;4.70;4.30;;;21.50;37.30;;;;;;4927047;29;20094;-63
2022/03/09 06:48:19;;;;;;;5.20;3.13;;;21.50;37.30;;;;;;4919598;29;20058;-63
2022/03/09 06:50:46;;;;;;;5.70;4.53;;;21.50;37.50;;;;;;4911882;29;20058;-61
2022/03/09 06:53:13;;;;;;;6.45;5.85;;;21.50;37.50;;;;;;4919819;29;20068;-63
2022/03/09 06:55:40;;;;;;;3.75;3.45;;;21.50;37.60;;;;;;4923911;29;20135;-63
2022/03/09 06:58:08;;;;;;;4.60;3.80;;;21.40;37.40;;;;;;4918248;29;20044;-62
2022/03/09 07:00:36;;;;;;;7.03;4.32;;;21.50;37.50;;;;;;4920965;29;20047;-64
2022/03/09 07:03:05;;;;;;;4.80;4.35;;;21.50;37.50;;;;;;4911302;29;20143;-66
2022/03/09 07:05:32;;;;;;;3.83;3.20;;;21.50;37.60;;;;;;4921994;29;20397;-65
2022/03/09 07:07:59;;;;;;;5.93;4.38;;;21.40;37.60;;;;;;4924743;29;20059;-65
2022/03/09 07:10:27;;;;;;;5.32;4.15;;;21.40;37.60;;;;;;4921481;29;20054;-64
2022/03/09 07:12:54;;;;;;;9.43;4.07;;;21.50;37.70;;;;;;4917404;29;20048;-63
2022/03/09 07:15:23;;;;;;;3.63;3.13;;;21.50;37.50;;;;;;4926518;29;20087;-63
2022/03/09 07:17:50;;;;;;;4.10;3.70;;;21.50;37.60;;;;;;4915411;29;20050;-62
2022/03/09 07:20:19;;;;;;;8.73;4.28;;;21.50;37.60;;;;;;4919635;29;20109;-63
2022/03/09 07:22:47;;;;;;;10.13;3.83;;;21.50;37.40;;;;;;4918020;29;20048;-62
2022/03/09 07:25:15;;;;;;;3.03;2.83;;;21.50;37.40;;;;;;4919225;29;20718;-63
2022/03/09 07:27:43;;;;;;;3.67;2.53;;;21.50;37.40;;;;;;4926315;29;20041;-63
2022/03/09 07:30:12;;;;;;;6.78;3.55;;;21.50;37.30;;;;;;4920355;29;20078;-63
2022/03/09 07:32:40;;;;;;;3.38;3.13;;;21.50;37.50;;;;;;4918810;29;20635;-61
2022/03/09 07:35:08;;;;;;;6.10;4.38;;;21.60;37.40;;;;;;4931338;29;20056;-61
2022/03/09 07:37:36;;;;;;;3.45;3.15;;;21.50;37.50;;;;;;4929039;29;20048;-61
2022/03/09 07:40:05;;;;;;;7.57;3.25;;;21.60;37.50;;;;;;4920584;28;20044;-62
2022/03/09 07:42:32;;;;;;;4.00;2.53;;;21.60;37.60;;;;;;4920060;29;20050;-61
2022/03/09 07:45:00;;;;;;;2.83;2.63;;;21.60;37.70;;;;;;4910131;29;20545;-62
2022/03/09 07:47:27;;;;;;;4.70;4.30;;;21.60;37.50;;;;;;4921354;29;20095;-61
2022/03/09 07:49:56;;;;;;;3.15;2.85;;;21.60;37.70;;;;;;4910594;29;20512;-62
2022/03/09 07:52:23;;;;;;;3.10;2.90;;;21.60;37.60;;;;;;4938998;28;20593;-61
2022/03/09 07:54:50;;;;;;;5.75;3.33;;;21.60;37.50;;;;;;4920598;29;20388;-68
2022/03/09 07:57:18;;;;;;;4.20;2.92;;;21.70;37.70;;;;;;4922263;29;20040;-67
2022/03/09 07:59:45;;;;;;;2.72;2.42;;;21.80;38.20;;;;;;4910837;29;20558;-62
2022/03/09 08:02:12;;;;;;;3.08;2.28;;;21.80;38.80;;;;;;4920788;29;20115;-63
2022/03/09 08:04:39;;;;;;;2.67;2.50;;;22.00;38.20;;;;;;4921594;29;20056;-69
2022/03/09 08:07:08;;;;;;;3.30;2.88;;;22.10;38.00;;;;;;4918395;29;20044;-67
2022/03/09 08:09:36;;;;;;;3.03;2.20;;;22.20;37.80;;;;;;4915274;29;20079;-55
2022/03/09 08:12:04;;;;;;;4.18;3.03;;;22.30;38.30;;;;;;4928811;29;20046;-51
2022/03/09 08:14:32;;;;;;;2.67;2.25;;;22.50;37.60;;;;;;4922262;29;20064;-64
2022/03/09 08:16:59;;;;;;;2.63;2.42;;;22.60;38.20;;;;;;4918426;29;20044;-62
2022/03/09 08:19:28;;;;;;;2.55;2.33;;;22.70;37.30;;;;;;4930943;29;20052;-63
2022/03/09 08:21:56;;;;;;;6.00;2.30;;;22.80;37.10;;;;;;4929966;29;20082;-63
2022/03/09 08:24:27;;;;;;;3.17;2.05;;;22.90;37.00;;;;;;4918704;29;20051;-62
2022/03/09 08:26:54;;;;;;;4.38;2.28;;;23.00;36.80;;;;;;4910072;29;20394;-61
2022/03/09 08:29:21;;;;;;;2.40;1.95;;;23.20;36.70;;;;;;4918246;29;20051;-61
2022/03/09 08:31:48;;;;;;;3.00;1.95;;;23.30;36.50;;;;;;4934125;29;20103;-69
2022/03/09 08:34:15;;;;;;;2.75;2.40;;;23.30;36.40;;;;;;4919147;29;20415;-67
2022/03/09 08:36:42;;;;;;;2.67;2.47;;;23.50;36.20;;;;;;4921423;29;20249;-66
2022/03/09 08:39:09;;;;;;;6.25;2.05;;;23.60;36.00;;;;;;4925183;29;20040;-57
2022/03/09 08:41:38;;;;;;;2.20;2.08;;;23.60;35.80;;;;;;4923396;29;20043;-57
2022/03/09 08:44:05;;;;;;;2.05;1.95;;;23.80;35.70;;;;;;4926113;29;20043;-63
2022/03/09 08:46:32;;;;;;;4.10;2.38;;;23.80;35.60;;;;;;4925364;29;20047;-67
2022/03/09 08:48:59;;;;;;;4.20;1.90;;;23.90;35.60;;;;;;4918636;29;20091;-71
2022/03/09 08:51:26;;;;;;;3.83;1.38;;;24.00;35.50;;;;;;4924691;29;20133;-67
2022/03/09 08:53:53;;;;;;;2.55;2.35;;;24.10;35.50;;;;;;4918470;29;20055;-63
2022/03/09 08:56:21;;;;;;;3.50;1.30;;;24.10;35.30;;;;;;4922760;28;20044;-69
2022/03/09 08:58:49;;;;;;;1.52;1.33;;;24.10;35.40;;;;;;4942205;28;20792;-59
2022/03/09 09:01:16;;;;;;;3.05;1.58;;;24.20;35.30;;;;;;4929980;29;20044;-52
2022/03/09 09:03:44;;;;;;;1.40;1.30;;;24.30;35.30;;;;;;4925691;29;20044;-52
2022/03/09 09:06:11;;;;;;;1.30;1.20;;;24.30;35.40;;;;;;4925551;29;20437;-59
2022/03/09 09:08:38;;;;;;;4.45;1.33;;;24.30;35.30;;;;;;4916617;29;20040;-61
2022/03/09 09:11:05;;;;;;;1.92;1.23;;;24.40;35.30;;;;;;4923078;29;20455;-55
2022/03/09 09:13:32;;;;;;;2.60;0.98;;;24.40;35.20;;;;;;4930879;29;20044;-49
2022/03/09 09:16:01;;;;;;;1.83;0.98;;;24.40;35.20;;;;;;4925120;29;20131;-60
2022/03/09 09:18:28;;;;;;;3.38;1.10;;;24.50;35.20;;;;;;4926831;29;20043;-56
2022/03/09 09:20:56;;;;;;;0.90;0.90;;;24.50;35.20;;;;;;4924530;29;20223;-57
2022/03/09 09:23:24;;;;;;;2.58;1.23;;;24.60;35.20;;;;;;4934523;28;20047;-58
2022/03/09 09:25:51;;;;;;;5.07;0.90;;;24.60;35.20;;;;;;4924201;29;20056;-64
2022/03/09 09:28:18;;;;;;;2.40;0.70;;;24.60;35.20;;;;;;4920132;29;20425;-63
2022/03/09 09:30:46;;;;;;;2.00;0.75;;;24.60;35.20;;;;;;4958883;28;20107;-62
2022/03/09 09:33:14;;;;;;;1.42;1.25;;;24.60;35.30;;;;;;4924886;29;20505;-63
2022/03/09 09:35:41;;;;;;;1.15;0.40;;;24.60;35.30;;;;;;4920734;29;20131;-55
2022/03/09 09:38:09;;;;;;;0.85;0.68;;;24.70;35.50;;;;;;4920202;29;20495;-51
2022/03/09 09:40:41;;;;;;;4.50;0.77;;;24.70;35.60;;;;;;4919131;29;20096;-51
2022/03/09 09:43:11;;;;;;;3.92;0.57;;;24.70;35.70;;;;;;4927027;29;20055;-52
2022/03/09 09:45:39;;;;;;;1.38;0.65;;;24.70;35.70;;;;;;4924794;29;20520;-53
2022/03/09 09:48:07;;;;;;;1.38;0.60;;;24.80;35.80;;;;;;4918776;29;20056;-48
2022/03/09 09:50:37;;;;;;;0.93;0.70;;;24.80;35.70;;;;;;4923884;29;20063;-51
2022/03/09 09:53:05;;;;;;;2.88;0.60;;;24.80;35.80;;;;;;4922157;29;20078;-55
2022/03/09 09:55:33;;;;;;;2.40;0.22;;;24.90;35.90;;;;;;4924310;29;20087;-55
2022/03/09 09:58:01;;;;;;;4.00;0.68;;;24.90;35.90;;;;;;4922588;29;20044;-52
2022/03/09 10:00:28;;;;;;;0.65;0.45;;;24.90;35.80;;;;;;4924365;29;20035;-56
2022/03/09 10:02:55;;;;;;;0.40;0.40;;;25.00;35.80;;;;;;4926432;29;20688;-66
2022/03/09 10:05:23;;;;;;;0.63;0.35;;;25.00;35.80;;;;;;4916563;29;20047;-62
2022/03/09 10:08:17;;;;;;;0.40;0.32;;;25.00;35.80;;;;;;4922950;29;20047;-62
2022/03/09 10:10:46;;;;;;;5.85;0.98;;;25.10;35.60;;;;;;4916941;29;20062;-63
2022/03/09 10:13:16;;;;;;;1.20;0.40;;;25.10;35.60;;;;;;4922973;29;20059;-69
2022/03/09 10:15:45;;;;;;;3.60;0.70;;;25.20;35.70;;;;;;4923972;29;20150;-68
2022/03/09 10:18:17;;;;;;;1.45;0.45;;;25.20;35.70;;;;;;4925592;29;20131;-55
2022/03/09 10:20:45;;;;;;;2.20;0.50;;;25.30;35.70;;;;;;4952511;28;20445;-54
2022/03/09 10:23:14;;;;;;;1.02;0.60;;;25.30;35.50;;;;;;4927336;29;20523;-57
2022/03/09 10:25:41;;;;;;;0.88;0.52;;;25.30;35.40;;;;;;4925847;29;20039;-60
2022/03/09 10:28:11;;;;;;;0.80;0.30;;;25.20;35.30;;;;;;4925415;29;20039;-61
2022/03/09 10:30:40;;;;;;;1.98;0.40;;;25.30;35.30;;;;;;4917256;29;20383;-62
2022/03/09 10:33:08;;;;;;;3.65;0.68;;;25.30;35.20;;;;;;4926484;29;20483;-66
2022/03/09 10:35:45;;;;;;;0.50;0.50;;;25.30;35.30;;;;;;4921705;29;20044;-63
2022/03/09 10:38:29;;;;;;;0.57;0.45;;;25.30;35.30;;;;;;4919828;29;20560;-60
2022/03/09 10:41:04;;;;;;;1.55;0.57;;;25.30;35.20;;;;;;4920805;29;20421;-57
2022/03/09 10:43:33;;;;;;;2.35;0.30;;;25.40;35.40;;;;;;4933957;29;20062;-61
2022/03/09 10:46:03;;;;;;;0.82;0.80;;;25.40;35.40;;;;;;4925441;29;20047;-57
2022/03/09 10:48:50;;;;;;;1.30;0.52;;;25.40;35.40;;;;;;4922982;29;20035;-58
2022/03/09 10:51:29;;;;;;;0.73;0.30;;;25.50;35.40;;;;;;4919095;29;20063;-55
2022/03/09 10:53:59;;;;;;;0.95;0.50;;;25.50;35.40;;;;;;4925254;29;20134;-57
2022/03/09 10:56:26;;;;;;;0.35;0.20;;;25.50;35.40;;;;;;4921064;29;20056;-56
2022/03/09 10:58:53;;;;;;;0.22;0.22;;;25.50;35.50;;;;;;4924702;29;20466;-56
2022/03/09 11:01:23;;;;;;;0.52;0.52;;;25.60;35.60;;;;;;4932587;29;20058;-69
2022/03/09 11:03:50;;;;;;;0.82;0.38;;;25.50;35.40;;;;;;4922544;29;20048;-64
2022/03/09 11:06:18;;;;;;;0.73;0.22;;;25.60;35.40;;;;;;4928002;29;20052;-56
2022/03/09 11:08:45;;;;;;;0.38;0.38;;;25.60;35.30;;;;;;4918958;29;20059;-64
2022/03/09 11:11:14;;;;;;;1.25;0.40;;;25.70;35.30;;;;;;4923751;29;20135;-62
2022/03/09 11:13:41;;;;;;;1.15;0.20;;;25.70;35.20;;;;;;4925082;29;20051;-57
2022/03/09 11:16:08;;;;;;;0.30;0.15;;;25.80;35.20;;;;;;4916240;29;20062;-56
2022/03/09 11:18:36;;;;;;;1.73;0.20;;;25.80;35.10;;;;;;4920010;29;20036;-59
2022/03/09 11:21:05;;;;;;;0.43;0.13;;;25.80;35.00;;;;;;4913919;29;20044;-56
2022/03/09 11:23:34;;;;;;;0.75;0.30;;;25.90;35.00;;;;;;4915577;29;20052;-63
2022/03/09 11:26:06;;;;;;;1.38;0.20;;;25.90;35.00;;;;;;4929642;29;20052;-60
2022/03/09 11:28:38;;;;;;;0.40;0.30;;;25.90;34.90;;;;;;4931300;29;20457;-60
2022/03/09 11:31:06;;;;;;;0.40;0.30;;;26.00;34.80;;;;;;4919617;29;20040;-52
2022/03/09 11:33:54;;;;;;;0.52;0.30;;;26.00;34.80;;;;;;4923101;29;20036;-64
2022/03/09 11:36:35;;;;;;;1.50;0.20;;;26.00;34.60;;;;;;4918909;29;20050;-62
2022/03/09 11:39:22;;;;;;;0.20;0.20;;;26.10;34.70;;;;;;4917356;29;20048;-63
2022/03/09 11:41:49;;;;;;;1.10;0.10;;;26.20;34.80;;;;;;4914600;29;20393;-53
2022/03/09 11:44:30;;;;;;;0.85;0.20;;;26.20;34.80;;;;;;4925313;29;20044;-65
2022/03/09 11:47:03;;;;;;;1.95;0.28;;;26.30;34.70;;;;;;4929386;29;20063;-62
2022/03/09 11:49:34;;;;;;;0.47;0.20;;;26.30;34.70;;;;;;4921981;29;20043;-61
2022/03/09 11:52:11;;;;;;;5.38;0.40;;;26.30;34.60;;;;;;4918600;29;20047;-66
2022/03/09 11:54:44;;;;;;;2.95;0.20;;;26.40;34.60;;;;;;4933892;29;20062;-71
2022/03/09 11:57:11;;;;;;;6.72;0.85;;;26.50;34.60;;;;;;4931657;29;20048;-66
2022/03/09 11:59:40;;;;;;;1.08;0.30;;;26.60;34.40;;;;;;4917729;29;20209;-62
2022/03/09 12:02:37;;;;;;;2.58;0.10;;;26.70;34.30;;;;;;4924648;29;20135;-61
2022/03/09 12:05:06;;;;;;;7.55;1.55;;;26.90;34.20;;;;;;4915333;29;20044;-61
2022/03/09 12:07:49;;;;;;;2.40;0.10;;;26.90;34.20;;;;;;4923238;29;20056;-61
2022/03/09 12:10:21;;;;;;;0.20;0.10;;;27.10;34.20;;;;;;4923195;29;20056;-67
2022/03/09 12:13:15;;;;;;;3.05;0.20;;;27.20;34.00;;;;;;4916813;29;20048;-66
2022/03/09 12:16:07;;;;;;;3.83;0.10;;;27.30;33.80;;;;;;4922808;29;20040;-66
2022/03/09 12:18:37;;;;;;;2.15;1.23;;;27.40;33.80;;;;;;4921819;29;20135;-63
2022/03/09 12:21:04;;;;;;;0.93;0.20;;;27.50;33.70;;;;;;4918718;29;20540;-72
2022/03/09 12:23:31;;;;;;;1.85;0.20;;;27.60;33.70;;;;;;4915810;28;20056;-76
2022/03/09 12:25:59;;;;;;;0.45;0.10;;;27.70;33.60;;;;;;4919544;29;20665;-62
2022/03/09 12:28:45;;;;;;;0.35;0.10;;;27.70;33.70;;;;;;4924248;29;20058;-70
2022/03/09 12:31:26;;;;;;;5.15;0.10;;;27.80;33.50;;;;;;4923921;29;20048;-61
2022/03/09 12:33:55;;;;;;;0.90;0.20;;;27.90;34.30;;;;;;4925513;29;20564;-58
2022/03/09 12:36:24;;;;;;;0.57;0.10;;;27.90;33.70;;;;;;4926966;29;20100;-57
2022/03/09 12:38:53;;;;;;;0.75;0.10;;;28.00;33.80;;;;;;4918858;29;20044;-56
2022/03/09 12:41:27;;;;;;;4.80;0.20;;;28.00;33.70;;;;;;4920612;29;20044;-57
2022/03/09 12:43:56;;;;;;;2.10;0.47;;;28.10;33.80;;;;;;4931251;29;20138;-57
2022/03/09 12:46:25;;;;;;;1.40;0.40;;;28.10;33.90;;;;;;4919138;29;20052;-59
2022/03/09 12:49:01;;;;;;;1.98;0.22;;;28.10;33.80;;;;;;4927608;29;20043;-57
2022/03/09 12:51:28;;;;;;;;;;;28.10;33.60;;;;;;4925527;29;20044;-57
2022/03/09 12:53:55;;;;;;;0.57;0.20;;;28.10;33.60;;;;;;4918775;29;19934;-59
2022/03/09 12:56:24;;;;;;;0.28;0.10;;;28.10;33.50;;;;;;4921444;29;20070;-59